Saxeville, WI (54976)

5:37 AM CDT on September 18, 2014 (GMT -0500)
Mt. Morris Township | Change Station
CLOSE
Current Station
Personal Weather Station
Location: Wautoma, WI
Elevation: 912 ft
Nearby Weather Stations

Elev 912 ft 44.08 °N, 89.21 °W | Updated 7 minutes ago

Overcast
Overcast
47.8 °F
Feels Like 48 °F
N
1.7
Wind Variable Wind from NE

Today
High -- | Low -- °F
--% Chance of Precip.
Yesterday
High -- | Low -- °F
Precip. -- in
6:39 AM 7:01 PM
Waning Crescent, 28% visible
Pressure 30.15 in
Visibility 10.0 miles
Clouds Overcast 800 ft
Windchill 48 °F
Dew Point 47 °F
Humidity 98%
Rainfall 0.00 in
Snow Depth Not available.
UV 0 out of 12
Pollen 4.20 out of 12
Air Quality Not available.
Flu Activity Not available.
METAR KPCZ 181015Z AUTO 03005KT 10SM OVC008 09/07 A3015 RMK AO2 T00850068

More Conditions Fewer Conditions

Pressure 30.15 in
Visibility 10.0 miles
Clouds Overcast 800 ft
Windchill 48 °F
Dew Point 47 °F
Humidity 98%
Rainfall 0.00 in
Snow Depth Not available.
UV 0 out of 12
Pollen 4.20 out of 12
Air Quality Not available.
Flu Activity Not available.
METAR KPCZ 181015Z AUTO 03005KT 10SM OVC008 09/07 A3015 RMK AO2 T00850068

More Conditions Fewer Conditions

10-Day Weather Forecast

Almanac

Astronomy

Sep. 18, 2014 Rise Set
Actual Time 6:39 AM CDT 7:01 PM CDT
Civil Twilight 6:10 AM CDT 7:30 PM CDT
Nautical Twilight 5:35 AM CDT 8:04 PM CDT
Astronomical Twilight 5:00 AM CDT 8:39 PM CDT
Moon 1:22 AM CDT 4:00 PM CDT
Length of Visible Light 13h 20m
Length of Day
12h 22m
Tomorrow will be 3m 1s shorter.
Waning Crescent, 28% of the Moon is Illuminated
Today
Waning Crescent
Sep 24
New
Oct 1
First Quarter
Oct 8
Full
Oct 15
Last Quarter

Today's Extremes

State Highs State Lows

Community

WunderPhotos

Upload Photos

1,754,314 photos uploaded!

Nearby

Snow Depth

Station Depth Elevation
No new snow has been reported.

Earthquake Activity

City Distance Mag. Time & Date
No recent earthquake activity has been reported nearby.
Minimum magnitude displayed is 2.5.

Coastal Water Temperatures

Place Temperature
No Stations Reporting

Nearby Weather Stations